Terminal Aerodrome Forecast
Issued by NWS Sterling, VA

Current Version | Previous Version | Graphics & Text | Print | Product List | Glossary On
Versions: 1 2 3 4 5 6 7 8 9 10 11 12 13 14 15 16 17 18 19 20 21 22 23 24
000
FTUS41 KLWX 202324
TAFIAD
TAF
KIAD 202324Z 2100/2206 14006KT P6SM SCT050
     FM210600 16005KT P6SM BKN100
     FM211200 17006KT P6SM -SHRA BKN020
     FM211600 19007KT 5SM +SHRA VCTS OVC050CB
     FM212200 27008KT 3SM SHRA VCTS BKN030CB
     FM212300 28007KT P6SM BKN050
     FM220100 30008KT P6SM SCT250=

USA.gov is the U.S. government's official web portal to all federal, state and local government web resources and services.